Impacts METAR Board
IDs:

KPHX - Phoenix/Sky Harbor, AZ, US

Updated at: 0300 UTC 20 Aug 2018
Potential Impact None Slight Moderate High
Time 19/15Z 19/16Z 19/17Z 19/18Z 19/19Z 19/20Z 19/21Z 19/22Z 19/23Z 20/00Z 20/01Z 20/02Z 20/03Z
Temp91 93 95 98 99 102 105 106 106 107 106 106 105
Dewpt65 64 65 65 63 63 62 62 59 59 55 55 57
Altim29.89 29.89 29.89 29.87 29.86 29.83 29.80 29.78 29.74 29.73 29.71 29.71 29.72
VIS10 10 10 10 10 10 10 10 10 10 10 10 10
CIG-- -- -- -- -- -- -- -- -- -- -- -- --
CoverFEWFEWCLRFEWFEWFEWFEWFEWFEWFEWFEWFEWFEW
FltCatVFRVFRVFRVFRVFRVFRVFRVFRVFRVFRVFRVFRVFR
WX--------------------------
WDir02602200330270250320260290240290260
WSpd0 6 5 6 5 5 6 11 6 10 10 10 8
WGst-- -- -- -- -- -- -- -- -- -- -- -- --
Raw hourly METARs
KPHX 191451Z 00000KT 10SM FEW150 FEW250 33/18 A2989 RMK AO2 SLP099 T03280183 51017
KPHX 191551Z 26006KT 10SM FEW150 FEW250 34/18 A2989 RMK AO2 SLP098 T03390178
KPHX 191651Z 22005KT 10SM CLR 35/18 A2989 RMK AO2 SLP098 T03500183
KPHX 191751Z VRB06KT 10SM FEW250 37/18 A2987 RMK AO2 SLP094 T03670183 10367 20317 58005
KPHX 191851Z 33005KT 10SM FEW250 37/17 A2986 RMK AO2 SLP087 T03720172
KPHX 191951Z 27005KT 10SM FEW080 39/17 A2983 RMK AO2 SLP077 T03890172
KPHX 192051Z 25006KT 10SM FEW080 41/17 A2980 RMK AO2 SLP069 T04060167 58023
KPHX 192151Z 32011KT 10SM FEW080 41/17 A2978 RMK AO2 SLP059 TCU DSNT N T04110167
KPHX 192251Z 26006KT 10SM FEW080 41/15 A2974 RMK AO2 SLP048 CB DSNT N T04110150
KPHX 192351Z 29010KT 10SM FEW090 FEW250 42/15 A2973 RMK AO2 SLP042 TCU DSNT N AND SE T04170150 10422 20361 56026
KPHX 200051Z 24010KT 10SM FEW090 FEW250 41/13 A2971 RMK AO2 SLP038 T04110128
KPHX 200151Z 29010KT 10SM FEW090 FEW250 41/13 A2971 RMK AO2 SLP037 T04110128
KPHX 200251Z 26008KT 10SM FEW090 FEW250 41/14 A2972 RMK AO2 SLP040 T04060139 55002



Page loaded:  03:32 UTC  |   08:32 PM Pacific  |   09:32 PM Mountain  |   10:32 PM Central  |   11:32 PM Eastern

 

ADVISORIES

FORECASTS

FORECASTS

OBSERVATIONS

USER TOOLS

ABOUT US